Glenmora, Louisiana
Current Conditions -  °F | °C
As of 9:15 AM on Wednesday 26 Nov 2014 (Local Time) from KACP Reporting Station
Clear Clear  
Wind Chill: 56°   Ceiling: Unl
Heat Index: 56°   Visibility: 10mi
Dew Point: 48°   Wind: 6mph
Humidity: 77%   Direction: 210°SSW
Pressure: 30.23"   Gusts: NA
Location:  30.98°N, 92.59°W
Report Text: KACP 261515Z AUTO 21005KT 10SM CLR 13/09 A3023 RMK AO2 T01310091
Loading
Personal Weather Stations






























Interactive Weather Map New forecast layout! Learn more

10-Day Weather Forecast

Advertisements
Track Severe Weather on mobile